sensor_id;sensor_type;location;lat;lon;timestamp;temperature;humidity
18950;DHT22;9608;49.288;8.130;2023-04-16T00:00:54;9.10;99.90
18950;DHT22;9608;49.288;8.130;2023-04-16T00:03:21;9.10;99.90
18950;DHT22;9608;49.288;8.130;2023-04-16T00:05:48;9.10;99.90
18950;DHT22;9608;49.288;8.130;2023-04-16T00:08:15;9.10;99.90
18950;DHT22;9608;49.288;8.130;2023-04-16T00:10:43;9.10;99.90
18950;DHT22;9608;49.288;8.130;2023-04-16T00:13:12;9.10;99.90
18950;DHT22;9608;49.288;8.130;2023-04-16T00:15:39;9.10;99.90
18950;DHT22;9608;49.288;8.130;2023-04-16T00:18:06;9.10;99.90
18950;DHT22;9608;49.288;8.130;2023-04-16T00:20:33;9.10;99.90
18950;DHT22;9608;49.288;8.130;2023-04-16T00:22:59;9.10;99.90
18950;DHT22;9608;49.288;8.130;2023-04-16T00:25:26;9.10;99.90
18950;DHT22;9608;49.288;8.130;2023-04-16T00:27:54;9.10;99.90
18950;DHT22;9608;49.288;8.130;2023-04-16T00:30:21;9.10;99.90
18950;DHT22;9608;49.288;8.130;2023-04-16T00:32:48;9.10;99.90
18950;DHT22;9608;49.288;8.130;2023-04-16T00:35:15;9.10;99.90
18950;DHT22;9608;49.288;8.130;2023-04-16T00:37:41;9.10;99.90
18950;DHT22;9608;49.288;8.130;2023-04-16T00:40:09;9.10;99.90
18950;DHT22;9608;49.288;8.130;2023-04-16T00:42:35;9.10;99.90
18950;DHT22;9608;49.288;8.130;2023-04-16T00:45:04;9.10;99.90
18950;DHT22;9608;49.288;8.130;2023-04-16T00:47:31;9.10;99.90
18950;DHT22;9608;49.288;8.130;2023-04-16T00:49:58;9.10;99.90
18950;DHT22;9608;49.288;8.130;2023-04-16T00:52:25;9.10;99.90
18950;DHT22;9608;49.288;8.130;2023-04-16T00:54:53;9.10;99.90
18950;DHT22;9608;49.288;8.130;2023-04-16T00:57:19;9.20;99.90
18950;DHT22;9608;49.288;8.130;2023-04-16T00:59:48;9.10;99.90
18950;DHT22;9608;49.288;8.130;2023-04-16T01:02:19;9.20;99.90
18950;DHT22;9608;49.288;8.130;2023-04-16T01:04:45;9.20;99.90
18950;DHT22;9608;49.288;8.130;2023-04-16T01:07:12;9.20;99.90
18950;DHT22;9608;49.288;8.130;2023-04-16T01:09:39;9.20;99.90
18950;DHT22;9608;49.288;8.130;2023-04-16T01:12:05;9.10;99.90
18950;DHT22;9608;49.288;8.130;2023-04-16T01:14:32;9.10;99.90
18950;DHT22;9608;49.288;8.130;2023-04-16T01:17:00;9.10;99.90
18950;DHT22;9608;49.288;8.130;2023-04-16T01:19:28;9.10;99.90
18950;DHT22;9608;49.288;8.130;2023-04-16T01:21:57;9.10;99.90
18950;DHT22;9608;49.288;8.130;2023-04-16T01:24:24;9.10;99.90
18950;DHT22;9608;49.288;8.130;2023-04-16T01:26:51;9.10;99.90
18950;DHT22;9608;49.288;8.130;2023-04-16T01:29:18;9.10;99.90
18950;DHT22;9608;49.288;8.130;2023-04-16T01:31:45;9.10;99.90
18950;DHT22;9608;49.288;8.130;2023-04-16T01:34:11;9.00;99.90
18950;DHT22;9608;49.288;8.130;2023-04-16T01:36:38;9.00;99.90
18950;DHT22;9608;49.288;8.130;2023-04-16T01:39:06;9.00;99.90
18950;DHT22;9608;49.288;8.130;2023-04-16T01:41:35;9.10;99.90
18950;DHT22;9608;49.288;8.130;2023-04-16T01:44:03;9.10;99.90
18950;DHT22;9608;49.288;8.130;2023-04-16T01:46:31;9.10;99.90
18950;DHT22;9608;49.288;8.130;2023-04-16T01:48:58;9.00;99.90
18950;DHT22;9608;49.288;8.130;2023-04-16T01:51:26;9.00;99.90
18950;DHT22;9608;49.288;8.130;2023-04-16T01:53:53;9.00;99.90
18950;DHT22;9608;49.288;8.130;2023-04-16T01:56:21;9.10;99.90
18950;DHT22;9608;49.288;8.130;2023-04-16T01:58:47;9.10;99.90
18950;DHT22;9608;49.288;8.130;2023-04-16T02:01:14;9.10;99.90
18950;DHT22;9608;49.288;8.130;2023-04-16T02:03:41;9.00;99.90
18950;DHT22;9608;49.288;8.130;2023-04-16T02:06:07;9.00;99.90
18950;DHT22;9608;49.288;8.130;2023-04-16T02:08:34;9.00;99.90
18950;DHT22;9608;49.288;8.130;2023-04-16T02:11:01;9.00;99.90
18950;DHT22;9608;49.288;8.130;2023-04-16T02:13:29;9.00;99.90
18950;DHT22;9608;49.288;8.130;2023-04-16T02:15:59;8.90;99.90
18950;DHT22;9608;49.288;8.130;2023-04-16T02:18:27;8.90;99.90
18950;DHT22;9608;49.288;8.130;2023-04-16T02:20:53;8.90;99.90
18950;DHT22;9608;49.288;8.130;2023-04-16T02:23:23;8.90;99.90
18950;DHT22;9608;49.288;8.130;2023-04-16T02:25:49;9.00;99.90
18950;DHT22;9608;49.288;8.130;2023-04-16T02:28:16;9.00;99.90
18950;DHT22;9608;49.288;8.130;2023-04-16T02:30:44;9.00;99.90
18950;DHT22;9608;49.288;8.130;2023-04-16T02:33:11;9.00;99.90
18950;DHT22;9608;49.288;8.130;2023-04-16T02:35:38;9.00;99.90
18950;DHT22;9608;49.288;8.130;2023-04-16T02:38:06;8.90;99.90
18950;DHT22;9608;49.288;8.130;2023-04-16T02:40:33;8.90;99.90
18950;DHT22;9608;49.288;8.130;2023-04-16T02:43:00;8.90;99.90
18950;DHT22;9608;49.288;8.130;2023-04-16T02:45:27;8.90;99.90
18950;DHT22;9608;49.288;8.130;2023-04-16T02:47:57;8.90;99.90
18950;DHT22;9608;49.288;8.130;2023-04-16T02:50:23;9.00;99.90
18950;DHT22;9608;49.288;8.130;2023-04-16T02:52:50;9.00;99.90
18950;DHT22;9608;49.288;8.130;2023-04-16T02:55:17;9.00;99.90
18950;DHT22;9608;49.288;8.130;2023-04-16T02:57:44;9.00;99.90
18950;DHT22;9608;49.288;8.130;2023-04-16T03:00:11;9.00;99.90
18950;DHT22;9608;49.288;8.130;2023-04-16T03:02:38;9.00;99.90
18950;DHT22;9608;49.288;8.130;2023-04-16T03:05:07;9.00;99.90
18950;DHT22;9608;49.288;8.130;2023-04-16T03:07:34;9.00;99.90
18950;DHT22;9608;49.288;8.130;2023-04-16T03:10:01;9.00;99.90
18950;DHT22;9608;49.288;8.130;2023-04-16T03:12:27;8.90;99.90
18950;DHT22;9608;49.288;8.130;2023-04-16T03:14:54;8.90;99.90
18950;DHT22;9608;49.288;8.130;2023-04-16T03:17:21;8.90;99.90
18950;DHT22;9608;49.288;8.130;2023-04-16T03:19:47;8.90;99.90
18950;DHT22;9608;49.288;8.130;2023-04-16T03:22:16;8.80;99.90
18950;DHT22;9608;49.288;8.130;2023-04-16T03:24:43;8.90;99.90
18950;DHT22;9608;49.288;8.130;2023-04-16T03:27:09;8.80;99.90
18950;DHT22;9608;49.288;8.130;2023-04-16T03:29:36;8.90;99.90
18950;DHT22;9608;49.288;8.130;2023-04-16T03:32:03;8.90;99.90
18950;DHT22;9608;49.288;8.130;2023-04-16T03:34:30;8.90;99.90
18950;DHT22;9608;49.288;8.130;2023-04-16T03:36:57;8.90;99.90
18950;DHT22;9608;49.288;8.130;2023-04-16T03:39:25;8.90;99.90
18950;DHT22;9608;49.288;8.130;2023-04-16T03:41:51;8.80;99.90
18950;DHT22;9608;49.288;8.130;2023-04-16T03:44:18;8.80;99.90
18950;DHT22;9608;49.288;8.130;2023-04-16T03:46:45;8.80;99.90
18950;DHT22;9608;49.288;8.130;2023-04-16T03:49:12;8.80;99.90
18950;DHT22;9608;49.288;8.130;2023-04-16T03:51:38;8.90;99.90
18950;DHT22;9608;49.288;8.130;2023-04-16T03:54:05;8.90;99.90
18950;DHT22;9608;49.288;8.130;2023-04-16T03:56:33;8.90;99.90
18950;DHT22;9608;49.288;8.130;2023-04-16T03:59:00;8.90;99.90
18950;DHT22;9608;49.288;8.130;2023-04-16T04:01:26;8.90;99.90
18950;DHT22;9608;49.288;8.130;2023-04-16T04:03:53;8.90;99.90
18950;DHT22;9608;49.288;8.130;2023-04-16T04:06:20;8.90;99.90
18950;DHT22;9608;49.288;8.130;2023-04-16T04:08:46;8.80;99.90
18950;DHT22;9608;49.288;8.130;2023-04-16T04:11:13;8.90;99.90
18950;DHT22;9608;49.288;8.130;2023-04-16T04:13:41;8.90;99.90
18950;DHT22;9608;49.288;8.130;2023-04-16T04:16:08;8.90;99.90
18950;DHT22;9608;49.288;8.130;2023-04-16T04:18:34;8.90;99.90
18950;DHT22;9608;49.288;8.130;2023-04-16T04:21:04;8.90;99.90
18950;DHT22;9608;49.288;8.130;2023-04-16T04:23:31;8.90;99.90
18950;DHT22;9608;49.288;8.130;2023-04-16T04:25:57;8.90;99.90
18950;DHT22;9608;49.288;8.130;2023-04-16T04:28:28;8.80;99.90
18950;DHT22;9608;49.288;8.130;2023-04-16T04:30:56;8.80;99.90
18950;DHT22;9608;49.288;8.130;2023-04-16T04:33:22;8.80;99.90
18950;DHT22;9608;49.288;8.130;2023-04-16T04:35:49;8.80;99.90
18950;DHT22;9608;49.288;8.130;2023-04-16T04:38:16;8.70;99.90
18950;DHT22;9608;49.288;8.130;2023-04-16T04:40:44;8.80;99.90
18950;DHT22;9608;49.288;8.130;2023-04-16T04:43:11;8.80;99.90
18950;DHT22;9608;49.288;8.130;2023-04-16T04:45:37;8.70;99.90
18950;DHT22;9608;49.288;8.130;2023-04-16T04:48:06;8.80;99.90
18950;DHT22;9608;49.288;8.130;2023-04-16T04:50:32;8.80;99.90
18950;DHT22;9608;49.288;8.130;2023-04-16T04:52:59;8.90;99.90
18950;DHT22;9608;49.288;8.130;2023-04-16T04:55:26;8.90;99.90
18950;DHT22;9608;49.288;8.130;2023-04-16T04:57:53;8.90;99.90
18950;DHT22;9608;49.288;8.130;2023-04-16T05:00:19;8.90;99.90
18950;DHT22;9608;49.288;8.130;2023-04-16T05:02:46;9.00;99.90
18950;DHT22;9608;49.288;8.130;2023-04-16T05:05:15;8.90;99.90
18950;DHT22;9608;49.288;8.130;2023-04-16T05:07:41;8.90;99.90
18950;DHT22;9608;49.288;8.130;2023-04-16T05:10:08;8.90;99.90
18950;DHT22;9608;49.288;8.130;2023-04-16T05:12:35;8.90;99.90
18950;DHT22;9608;49.288;8.130;2023-04-16T05:15:02;9.00;99.90
18950;DHT22;9608;49.288;8.130;2023-04-16T05:17:29;9.00;99.90
18950;DHT22;9608;49.288;8.130;2023-04-16T05:19:59;9.00;99.90
18950;DHT22;9608;49.288;8.130;2023-04-16T05:22:27;9.10;99.90
18950;DHT22;9608;49.288;8.130;2023-04-16T05:24:54;9.10;99.90
18950;DHT22;9608;49.288;8.130;2023-04-16T05:27:20;9.10;99.90
18950;DHT22;9608;49.288;8.130;2023-04-16T05:29:47;9.10;99.90
18950;DHT22;9608;49.288;8.130;2023-04-16T05:32:14;9.10;99.90
18950;DHT22;9608;49.288;8.130;2023-04-16T05:34:41;9.10;99.90
18950;DHT22;9608;49.288;8.130;2023-04-16T05:37:07;9.10;99.90
18950;DHT22;9608;49.288;8.130;2023-04-16T05:39:35;9.20;99.90
18950;DHT22;9608;49.288;8.130;2023-04-16T05:42:02;9.20;99.90
18950;DHT22;9608;49.288;8.130;2023-04-16T05:44:29;9.20;99.90
18950;DHT22;9608;49.288;8.130;2023-04-16T05:46:55;9.20;99.90
18950;DHT22;9608;49.288;8.130;2023-04-16T05:49:22;9.20;99.90
18950;DHT22;9608;49.288;8.130;2023-04-16T05:51:49;9.30;99.90
18950;DHT22;9608;49.288;8.130;2023-04-16T05:54:15;9.30;99.90
18950;DHT22;9608;49.288;8.130;2023-04-16T05:56:43;9.30;99.90
18950;DHT22;9608;49.288;8.130;2023-04-16T05:59:10;9.30;99.90
18950;DHT22;9608;49.288;8.130;2023-04-16T06:01:37;9.30;99.90
18950;DHT22;9608;49.288;8.130;2023-04-16T06:04:04;9.40;99.90
18950;DHT22;9608;49.288;8.130;2023-04-16T06:06:30;9.40;99.90
18950;DHT22;9608;49.288;8.130;2023-04-16T06:08:57;9.50;99.90
18950;DHT22;9608;49.288;8.130;2023-04-16T06:11:24;9.60;99.90
18950;DHT22;9608;49.288;8.130;2023-04-16T06:13:53;9.70;99.90
18950;DHT22;9608;49.288;8.130;2023-04-16T06:16:19;9.70;99.90
18950;DHT22;9608;49.288;8.130;2023-04-16T06:18:46;9.80;99.90
18950;DHT22;9608;49.288;8.130;2023-04-16T06:21:13;9.90;99.90
18950;DHT22;9608;49.288;8.130;2023-04-16T06:23:40;10.00;99.90
18950;DHT22;9608;49.288;8.130;2023-04-16T06:26:06;10.00;99.90
18950;DHT22;9608;49.288;8.130;2023-04-16T06:28:33;10.10;99.90
18950;DHT22;9608;49.288;8.130;2023-04-16T06:31:01;10.10;99.90
18950;DHT22;9608;49.288;8.130;2023-04-16T06:33:28;10.20;99.90
18950;DHT22;9608;49.288;8.130;2023-04-16T06:35:54;10.20;99.90
18950;DHT22;9608;49.288;8.130;2023-04-16T06:38:21;10.20;99.90
18950;DHT22;9608;49.288;8.130;2023-04-16T06:40:48;10.20;99.90
18950;DHT22;9608;49.288;8.130;2023-04-16T06:43:14;10.20;99.90
18950;DHT22;9608;49.288;8.130;2023-04-16T06:45:42;10.10;99.90
18950;DHT22;9608;49.288;8.130;2023-04-16T06:48:10;10.00;99.90
18950;DHT22;9608;49.288;8.130;2023-04-16T06:50:37;10.00;99.90
18950;DHT22;9608;49.288;8.130;2023-04-16T06:53:03;10.00;99.90
18950;DHT22;9608;49.288;8.130;2023-04-16T06:55:30;10.00;99.90
18950;DHT22;9608;49.288;8.130;2023-04-16T06:57:57;10.10;99.90
18950;DHT22;9608;49.288;8.130;2023-04-16T07:00:23;10.20;99.90
18950;DHT22;9608;49.288;8.130;2023-04-16T07:02:50;10.30;99.90
18950;DHT22;9608;49.288;8.130;2023-04-16T07:05:18;10.30;99.90
18950;DHT22;9608;49.288;8.130;2023-04-16T07:07:45;10.30;99.90
18950;DHT22;9608;49.288;8.130;2023-04-16T07:10:12;10.20;99.90
18950;DHT22;9608;49.288;8.130;2023-04-16T07:12:38;10.20;99.90
18950;DHT22;9608;49.288;8.130;2023-04-16T07:15:06;10.30;99.90
18950;DHT22;9608;49.288;8.130;2023-04-16T07:17:33;10.30;99.90
18950;DHT22;9608;49.288;8.130;2023-04-16T07:20:00;10.30;99.90
18950;DHT22;9608;49.288;8.130;2023-04-16T07:22:28;10.30;99.90
18950;DHT22;9608;49.288;8.130;2023-04-16T07:24:55;10.40;99.90
18950;DHT22;9608;49.288;8.130;2023-04-16T07:27:21;10.70;99.90
18950;DHT22;9608;49.288;8.130;2023-04-16T07:29:48;10.70;99.90
18950;DHT22;9608;49.288;8.130;2023-04-16T07:32:15;10.70;99.90
18950;DHT22;9608;49.288;8.130;2023-04-16T07:34:42;10.70;99.90
18950;DHT22;9608;49.288;8.130;2023-04-16T07:37:09;10.60;99.90
18950;DHT22;9608;49.288;8.130;2023-04-16T07:39:37;10.60;99.90
18950;DHT22;9608;49.288;8.130;2023-04-16T07:42:04;10.80;99.90
18950;DHT22;9608;49.288;8.130;2023-04-16T07:44:31;10.80;99.90
18950;DHT22;9608;49.288;8.130;2023-04-16T07:46:58;11.00;99.90
18950;DHT22;9608;49.288;8.130;2023-04-16T07:49:24;11.40;99.90
18950;DHT22;9608;49.288;8.130;2023-04-16T07:51:51;11.60;99.90
18950;DHT22;9608;49.288;8.130;2023-04-16T07:54:18;11.60;99.90
18950;DHT22;9608;49.288;8.130;2023-04-16T07:56:46;11.60;99.90
18950;DHT22;9608;49.288;8.130;2023-04-16T07:59:13;11.60;99.90
18950;DHT22;9608;49.288;8.130;2023-04-16T08:01:40;11.50;99.90
18950;DHT22;9608;49.288;8.130;2023-04-16T08:04:06;11.40;99.90
18950;DHT22;9608;49.288;8.130;2023-04-16T08:06:33;11.40;99.90
18950;DHT22;9608;49.288;8.130;2023-04-16T08:09:00;11.30;99.90
18950;DHT22;9608;49.288;8.130;2023-04-16T08:11:27;11.20;99.90
18950;DHT22;9608;49.288;8.130;2023-04-16T08:13:55;11.20;99.90
18950;DHT22;9608;49.288;8.130;2023-04-16T08:16:22;11.30;99.90
18950;DHT22;9608;49.288;8.130;2023-04-16T08:18:48;11.40;99.90
18950;DHT22;9608;49.288;8.130;2023-04-16T08:21:15;11.50;99.90
18950;DHT22;9608;49.288;8.130;2023-04-16T08:23:42;11.70;99.90
18950;DHT22;9608;49.288;8.130;2023-04-16T08:26:08;11.70;99.90
18950;DHT22;9608;49.288;8.130;2023-04-16T08:28:35;11.70;99.90
18950;DHT22;9608;49.288;8.130;2023-04-16T08:31:04;11.70;99.90
18950;DHT22;9608;49.288;8.130;2023-04-16T08:33:30;11.70;99.90
18950;DHT22;9608;49.288;8.130;2023-04-16T08:35:57;11.60;99.90
18950;DHT22;9608;49.288;8.130;2023-04-16T08:38:24;11.40;99.90
18950;DHT22;9608;49.288;8.130;2023-04-16T08:40:50;11.30;99.90
18950;DHT22;9608;49.288;8.130;2023-04-16T08:43:19;11.30;99.90
18950;DHT22;9608;49.288;8.130;2023-04-16T08:45:47;11.20;99.90
18950;DHT22;9608;49.288;8.130;2023-04-16T08:48:17;11.10;99.90
18950;DHT22;9608;49.288;8.130;2023-04-16T08:50:48;11.00;99.90
18950;DHT22;9608;49.288;8.130;2023-04-16T08:53:18;11.00;99.90
18950;DHT22;9608;49.288;8.130;2023-04-16T08:55:49;10.90;99.90
18950;DHT22;9608;49.288;8.130;2023-04-16T08:58:18;10.70;99.90
18950;DHT22;9608;49.288;8.130;2023-04-16T09:00:47;10.70;99.90
18950;DHT22;9608;49.288;8.130;2023-04-16T09:03:15;10.70;99.90
18950;DHT22;9608;49.288;8.130;2023-04-16T09:05:44;10.70;99.90
18950;DHT22;9608;49.288;8.130;2023-04-16T09:08:11;10.70;99.90
18950;DHT22;9608;49.288;8.130;2023-04-16T09:10:38;10.60;99.90
18950;DHT22;9608;49.288;8.130;2023-04-16T09:13:05;10.60;99.90
18950;DHT22;9608;49.288;8.130;2023-04-16T09:15:34;10.60;99.90
18950;DHT22;9608;49.288;8.130;2023-04-16T09:18:01;10.70;99.90
18950;DHT22;9608;49.288;8.130;2023-04-16T09:20:33;10.70;99.90
18950;DHT22;9608;49.288;8.130;2023-04-16T09:22:59;10.80;99.90
18950;DHT22;9608;49.288;8.130;2023-04-16T09:25:26;10.90;99.90
18950;DHT22;9608;49.288;8.130;2023-04-16T09:27:54;11.00;99.90
18950;DHT22;9608;49.288;8.130;2023-04-16T09:30:22;11.20;99.90
18950;DHT22;9608;49.288;8.130;2023-04-16T09:32:50;11.50;99.90
18950;DHT22;9608;49.288;8.130;2023-04-16T09:35:18;11.80;99.90
18950;DHT22;9608;49.288;8.130;2023-04-16T09:37:55;11.90;99.90
18950;DHT22;9608;49.288;8.130;2023-04-16T09:40:26;12.00;99.90
18950;DHT22;9608;49.288;8.130;2023-04-16T09:42:56;12.00;99.90
18950;DHT22;9608;49.288;8.130;2023-04-16T09:45:23;12.00;99.90
18950;DHT22;9608;49.288;8.130;2023-04-16T09:47:50;12.00;99.90
18950;DHT22;9608;49.288;8.130;2023-04-16T09:50:18;11.70;99.90
18950;DHT22;9608;49.288;8.130;2023-04-16T09:52:48;11.70;99.90
18950;DHT22;9608;49.288;8.130;2023-04-16T09:55:21;11.60;99.90
18950;DHT22;9608;49.288;8.130;2023-04-16T09:57:48;11.50;99.90
18950;DHT22;9608;49.288;8.130;2023-04-16T10:00:17;11.40;99.90
18950;DHT22;9608;49.288;8.130;2023-04-16T10:02:45;11.20;99.90
18950;DHT22;9608;49.288;8.130;2023-04-16T10:05:13;11.20;99.90
18950;DHT22;9608;49.288;8.130;2023-04-16T10:07:43;11.20;99.90
18950;DHT22;9608;49.288;8.130;2023-04-16T10:10:09;11.20;99.90
18950;DHT22;9608;49.288;8.130;2023-04-16T10:12:38;11.20;99.90
18950;DHT22;9608;49.288;8.130;2023-04-16T10:15:05;11.20;99.90
18950;DHT22;9608;49.288;8.130;2023-04-16T10:17:32;11.00;99.90
18950;DHT22;9608;49.288;8.130;2023-04-16T10:19:59;11.00;99.90
18950;DHT22;9608;49.288;8.130;2023-04-16T10:22:27;11.00;99.90
18950;DHT22;9608;49.288;8.130;2023-04-16T10:24:53;11.00;99.90
18950;DHT22;9608;49.288;8.130;2023-04-16T10:27:21;11.10;99.90
18950;DHT22;9608;49.288;8.130;2023-04-16T10:29:50;11.10;99.90
18950;DHT22;9608;49.288;8.130;2023-04-16T10:32:17;11.20;99.90
18950;DHT22;9608;49.288;8.130;2023-04-16T10:34:46;11.30;99.90
18950;DHT22;9608;49.288;8.130;2023-04-16T10:37:14;11.40;99.90
18950;DHT22;9608;49.288;8.130;2023-04-16T10:39:42;11.50;99.90
18950;DHT22;9608;49.288;8.130;2023-04-16T10:42:10;11.50;99.90
18950;DHT22;9608;49.288;8.130;2023-04-16T10:44:38;11.40;99.90
18950;DHT22;9608;49.288;8.130;2023-04-16T10:47:11;11.30;99.90
18950;DHT22;9608;49.288;8.130;2023-04-16T10:49:38;11.20;99.90
18950;DHT22;9608;49.288;8.130;2023-04-16T10:52:10;11.10;99.90
18950;DHT22;9608;49.288;8.130;2023-04-16T10:54:38;11.10;99.90
18950;DHT22;9608;49.288;8.130;2023-04-16T10:57:06;11.00;99.90
18950;DHT22;9608;49.288;8.130;2023-04-16T10:59:35;10.90;99.90
18950;DHT22;9608;49.288;8.130;2023-04-16T11:02:06;11.00;99.90
18950;DHT22;9608;49.288;8.130;2023-04-16T11:04:35;11.10;99.90
18950;DHT22;9608;49.288;8.130;2023-04-16T11:07:05;11.10;99.90
18950;DHT22;9608;49.288;8.130;2023-04-16T11:09:53;11.10;99.90
18950;DHT22;9608;49.288;8.130;2023-04-16T11:12:21;10.90;99.90
18950;DHT22;9608;49.288;8.130;2023-04-16T11:14:50;10.70;99.90
18950;DHT22;9608;49.288;8.130;2023-04-16T11:17:17;10.50;99.90
18950;DHT22;9608;49.288;8.130;2023-04-16T11:19:45;10.40;99.90
18950;DHT22;9608;49.288;8.130;2023-04-16T11:22:15;10.30;99.90
18950;DHT22;9608;49.288;8.130;2023-04-16T11:24:43;10.30;99.90
18950;DHT22;9608;49.288;8.130;2023-04-16T11:27:11;10.30;99.90
18950;DHT22;9608;49.288;8.130;2023-04-16T11:29:38;10.30;99.90
18950;DHT22;9608;49.288;8.130;2023-04-16T11:32:06;10.30;99.90
18950;DHT22;9608;49.288;8.130;2023-04-16T11:34:33;10.40;99.90
18950;DHT22;9608;49.288;8.130;2023-04-16T11:37:01;10.40;99.90
18950;DHT22;9608;49.288;8.130;2023-04-16T11:39:28;10.40;99.90
18950;DHT22;9608;49.288;8.130;2023-04-16T11:41:54;10.40;99.90
18950;DHT22;9608;49.288;8.130;2023-04-16T11:44:23;10.40;99.90
18950;DHT22;9608;49.288;8.130;2023-04-16T11:46:51;10.40;99.90
18950;DHT22;9608;49.288;8.130;2023-04-16T11:49:26;10.40;99.90
18950;DHT22;9608;49.288;8.130;2023-04-16T11:51:53;10.30;99.90
18950;DHT22;9608;49.288;8.130;2023-04-16T11:54:22;10.30;99.90
18950;DHT22;9608;49.288;8.130;2023-04-16T11:56:51;10.30;99.90
18950;DHT22;9608;49.288;8.130;2023-04-16T11:59:19;10.30;99.90
18950;DHT22;9608;49.288;8.130;2023-04-16T12:01:48;10.40;99.90
18950;DHT22;9608;49.288;8.130;2023-04-16T12:04:16;10.40;99.90
18950;DHT22;9608;49.288;8.130;2023-04-16T12:07:08;10.40;99.90
18950;DHT22;9608;49.288;8.130;2023-04-16T12:09:39;10.40;99.90
18950;DHT22;9608;49.288;8.130;2023-04-16T12:12:24;10.50;99.90
18950;DHT22;9608;49.288;8.130;2023-04-16T12:14:51;10.50;99.90
18950;DHT22;9608;49.288;8.130;2023-04-16T12:17:18;10.60;99.90
18950;DHT22;9608;49.288;8.130;2023-04-16T12:19:49;10.70;99.90
18950;DHT22;9608;49.288;8.130;2023-04-16T12:22:16;10.70;99.90
18950;DHT22;9608;49.288;8.130;2023-04-16T12:24:44;10.70;99.90
18950;DHT22;9608;49.288;8.130;2023-04-16T12:27:11;10.70;99.90
18950;DHT22;9608;49.288;8.130;2023-04-16T12:29:37;10.70;99.90
18950;DHT22;9608;49.288;8.130;2023-04-16T12:32:04;10.70;99.90
18950;DHT22;9608;49.288;8.130;2023-04-16T12:34:49;10.70;99.90
18950;DHT22;9608;49.288;8.130;2023-04-16T12:37:16;10.80;99.90
18950;DHT22;9608;49.288;8.130;2023-04-16T12:39:44;10.80;99.90
18950;DHT22;9608;49.288;8.130;2023-04-16T12:42:11;10.80;99.90
18950;DHT22;9608;49.288;8.130;2023-04-16T12:44:38;10.80;99.90
18950;DHT22;9608;49.288;8.130;2023-04-16T12:47:05;10.90;99.90
18950;DHT22;9608;49.288;8.130;2023-04-16T12:49:31;10.90;99.90
18950;DHT22;9608;49.288;8.130;2023-04-16T12:51:58;10.90;99.90
18950;DHT22;9608;49.288;8.130;2023-04-16T12:54:25;10.90;99.90
18950;DHT22;9608;49.288;8.130;2023-04-16T12:56:54;11.00;99.90
18950;DHT22;9608;49.288;8.130;2023-04-16T12:59:21;11.00;99.90
18950;DHT22;9608;49.288;8.130;2023-04-16T13:01:48;11.10;99.90
18950;DHT22;9608;49.288;8.130;2023-04-16T13:04:16;11.10;99.90
18950;DHT22;9608;49.288;8.130;2023-04-16T13:06:43;11.10;99.90
18950;DHT22;9608;49.288;8.130;2023-04-16T13:09:10;11.10;99.90
18950;DHT22;9608;49.288;8.130;2023-04-16T13:11:37;11.10;99.90
18950;DHT22;9608;49.288;8.130;2023-04-16T13:14:05;11.20;99.90
18950;DHT22;9608;49.288;8.130;2023-04-16T13:16:31;11.30;99.90
18950;DHT22;9608;49.288;8.130;2023-04-16T13:18:58;11.30;99.90
18950;DHT22;9608;49.288;8.130;2023-04-16T13:21:25;11.30;99.90
18950;DHT22;9608;49.288;8.130;2023-04-16T13:23:51;11.40;99.90
18950;DHT22;9608;49.288;8.130;2023-04-16T13:26:18;11.50;99.90
18950;DHT22;9608;49.288;8.130;2023-04-16T13:28:45;11.60;99.90
18950;DHT22;9608;49.288;8.130;2023-04-16T13:31:13;11.70;99.90
18950;DHT22;9608;49.288;8.130;2023-04-16T13:33:44;11.70;99.90
18950;DHT22;9608;49.288;8.130;2023-04-16T13:36:11;11.70;99.90
18950;DHT22;9608;49.288;8.130;2023-04-16T13:38:38;11.80;99.90
18950;DHT22;9608;49.288;8.130;2023-04-16T13:41:05;11.80;99.90
18950;DHT22;9608;49.288;8.130;2023-04-16T13:43:31;11.90;99.90
18950;DHT22;9608;49.288;8.130;2023-04-16T13:45:58;11.90;99.90
18950;DHT22;9608;49.288;8.130;2023-04-16T13:48:27;11.80;99.90
18950;DHT22;9608;49.288;8.130;2023-04-16T13:50:54;11.80;99.90
18950;DHT22;9608;49.288;8.130;2023-04-16T13:53:21;11.80;99.90
18950;DHT22;9608;49.288;8.130;2023-04-16T13:55:47;11.70;99.90
18950;DHT22;9608;49.288;8.130;2023-04-16T13:58:15;11.60;99.90
18950;DHT22;9608;49.288;8.130;2023-04-16T14:00:42;11.50;99.90
18950;DHT22;9608;49.288;8.130;2023-04-16T14:03:08;11.40;99.90
18950;DHT22;9608;49.288;8.130;2023-04-16T14:05:36;11.40;99.90
18950;DHT22;9608;49.288;8.130;2023-04-16T14:08:03;11.30;99.90
18950;DHT22;9608;49.288;8.130;2023-04-16T14:10:30;11.20;99.90
18950;DHT22;9608;49.288;8.130;2023-04-16T14:12:57;11.30;99.90
18950;DHT22;9608;49.288;8.130;2023-04-16T14:15:24;11.20;99.90
18950;DHT22;9608;49.288;8.130;2023-04-16T14:17:51;11.30;99.90
18950;DHT22;9608;49.288;8.130;2023-04-16T14:20:19;11.30;99.90
18950;DHT22;9608;49.288;8.130;2023-04-16T14:22:47;11.30;99.90
18950;DHT22;9608;49.288;8.130;2023-04-16T14:25:14;11.30;99.90
18950;DHT22;9608;49.288;8.130;2023-04-16T14:27:41;11.30;99.90
18950;DHT22;9608;49.288;8.130;2023-04-16T14:30:08;11.20;99.90
18950;DHT22;9608;49.288;8.130;2023-04-16T14:32:35;11.20;99.90
18950;DHT22;9608;49.288;8.130;2023-04-16T14:35:02;11.20;99.90
18950;DHT22;9608;49.288;8.130;2023-04-16T14:37:29;11.20;99.90
18950;DHT22;9608;49.288;8.130;2023-04-16T14:39:57;11.20;99.90
18950;DHT22;9608;49.288;8.130;2023-04-16T14:42:25;11.20;99.90
18950;DHT22;9608;49.288;8.130;2023-04-16T14:44:52;11.30;99.90
18950;DHT22;9608;49.288;8.130;2023-04-16T14:47:18;11.40;99.90
18950;DHT22;9608;49.288;8.130;2023-04-16T14:49:45;11.40;99.90
18950;DHT22;9608;49.288;8.130;2023-04-16T14:52:12;11.40;99.90
18950;DHT22;9608;49.288;8.130;2023-04-16T14:54:38;11.50;99.90
18950;DHT22;9608;49.288;8.130;2023-04-16T14:57:07;11.50;99.90
18950;DHT22;9608;49.288;8.130;2023-04-16T14:59:33;11.50;99.90
18950;DHT22;9608;49.288;8.130;2023-04-16T15:02:01;11.50;99.90
18950;DHT22;9608;49.288;8.130;2023-04-16T15:04:28;11.60;99.90
18950;DHT22;9608;49.288;8.130;2023-04-16T15:06:55;11.50;99.90
18950;DHT22;9608;49.288;8.130;2023-04-16T15:09:24;11.60;99.90
18950;DHT22;9608;49.288;8.130;2023-04-16T15:11:50;11.70;99.90
18950;DHT22;9608;49.288;8.130;2023-04-16T15:14:19;11.80;99.90
18950;DHT22;9608;49.288;8.130;2023-04-16T15:16:46;12.00;99.90
18950;DHT22;9608;49.288;8.130;2023-04-16T15:19:13;12.00;99.90
18950;DHT22;9608;49.288;8.130;2023-04-16T15:21:39;12.10;99.90
18950;DHT22;9608;49.288;8.130;2023-04-16T15:24:07;12.10;99.90
18950;DHT22;9608;49.288;8.130;2023-04-16T15:26:33;12.10;99.90
18950;DHT22;9608;49.288;8.130;2023-04-16T15:29:00;12.20;99.90
18950;DHT22;9608;49.288;8.130;2023-04-16T15:31:28;12.20;99.90
18950;DHT22;9608;49.288;8.130;2023-04-16T15:33:55;12.20;99.90
18950;DHT22;9608;49.288;8.130;2023-04-16T15:36:22;12.20;99.90
18950;DHT22;9608;49.288;8.130;2023-04-16T15:38:48;12.20;99.90
18950;DHT22;9608;49.288;8.130;2023-04-16T15:41:15;12.10;99.90
18950;DHT22;9608;49.288;8.130;2023-04-16T15:43:42;12.10;99.90
18950;DHT22;9608;49.288;8.130;2023-04-16T15:46:09;12.10;99.90
18950;DHT22;9608;49.288;8.130;2023-04-16T15:48:37;12.20;99.90
18950;DHT22;9608;49.288;8.130;2023-04-16T15:51:04;12.20;99.90
18950;DHT22;9608;49.288;8.130;2023-04-16T15:53:31;12.30;99.90